createdAt,value
2017-12-17T00:00:39.400Z,13.77
2017-12-17T00:03:07.465Z,13.73
2017-12-17T00:05:35.853Z,13.00
2017-12-17T00:08:03.573Z,14.43
2017-12-17T00:10:31.292Z,13.37
2017-12-17T00:12:59.356Z,14.60
2017-12-17T00:15:27.410Z,11.83
2017-12-17T00:17:55.124Z,13.47
2017-12-17T00:20:22.850Z,13.17
2017-12-17T00:22:50.570Z,12.70
2017-12-17T00:25:19.906Z,12.47
2017-12-17T00:27:48.300Z,14.30
2017-12-17T00:30:16.358Z,12.87
2017-12-17T00:32:44.737Z,12.40
2017-12-17T00:35:12.800Z,13.80
2017-12-17T00:37:41.189Z,14.40
2017-12-17T00:40:09.577Z,12.50
2017-12-17T00:42:37.305Z,13.47
2017-12-17T00:45:05.717Z,12.93
2017-12-17T00:47:34.092Z,12.57
2017-12-17T00:50:02.165Z,12.63
2017-12-17T00:52:30.556Z,13.80
2017-12-17T00:54:58.930Z,12.33
2017-12-17T00:57:27.003Z,12.60
2017-12-17T00:59:55.381Z,13.00
2017-12-17T01:02:23.758Z,14.43
2017-12-17T01:04:52.153Z,13.83
2017-12-17T01:07:20.197Z,13.83
2017-12-17T01:09:48.585Z,13.87
2017-12-17T01:12:16.656Z,13.73
2017-12-17T01:14:45.041Z,13.97
2017-12-17T01:17:12.753Z,15.00
2017-12-17T01:19:40.822Z,15.80
2017-12-17T01:22:09.215Z,14.60
2017-12-17T01:24:37.262Z,15.00
2017-12-17T01:27:05.659Z,14.17
2017-12-17T01:29:34.030Z,15.87
2017-12-17T01:32:02.405Z,17.60
2017-12-17T01:34:30.828Z,17.93
2017-12-17T01:36:59.209Z,16.40
2017-12-17T01:39:27.593Z,18.17
2017-12-17T01:41:55.987Z,17.47
2017-12-17T01:44:24.490Z,17.27
2017-12-17T01:46:52.210Z,16.97
2017-12-17T01:49:19.945Z,18.07
2017-12-17T01:51:47.993Z,18.47
2017-12-17T01:54:16.025Z,17.17
2017-12-17T01:56:43.751Z,17.60
2017-12-17T01:59:11.473Z,14.90
2017-12-17T02:01:40.638Z,17.17
2017-12-17T02:04:08.374Z,14.23
2017-12-17T02:06:36.762Z,14.37
2017-12-17T02:09:04.500Z,15.00
2017-12-17T02:11:32.221Z,15.17
2017-12-17T02:14:01.053Z,15.73
2017-12-17T02:16:29.119Z,14.30
2017-12-17T02:18:56.853Z,14.20
2017-12-17T02:21:25.166Z,14.03
2017-12-17T02:23:52.892Z,14.00
2017-12-17T02:26:21.394Z,14.80
2017-12-17T02:28:49.107Z,14.10
2017-12-17T02:31:16.835Z,15.37
2017-12-17T02:33:44.566Z,13.93
2017-12-17T02:36:13.057Z,15.63
2017-12-17T02:38:40.782Z,13.40
2017-12-17T02:41:09.291Z,15.83
2017-12-17T02:43:37.025Z,14.20
2017-12-17T02:46:04.778Z,15.13
2017-12-17T02:48:32.523Z,15.83
2017-12-17T02:51:00.250Z,15.80
2017-12-17T02:53:28.012Z,14.87
2017-12-17T02:55:55.746Z,15.17
2017-12-17T02:58:24.241Z,15.37
2017-12-17T03:00:52.726Z,14.00
2017-12-17T03:03:20.461Z,15.63
2017-12-17T03:05:48.194Z,13.03
2017-12-17T03:08:15.915Z,14.93
2017-12-17T03:10:43.639Z,13.73
2017-12-17T03:13:11.379Z,13.50
2017-12-17T03:15:39.086Z,14.30
2017-12-17T03:18:07.587Z,13.30
2017-12-17T03:20:35.302Z,12.77
2017-12-17T03:23:03.022Z,13.80
2017-12-17T03:25:30.758Z,12.90
2017-12-17T03:27:59.242Z,12.83
2017-12-17T03:30:27.727Z,12.40
2017-12-17T03:32:56.234Z,15.07
2017-12-17T03:35:23.949Z,11.73
2017-12-17T03:37:51.552Z,12.43
2017-12-17T03:40:19.302Z,12.47
2017-12-17T03:42:47.032Z,12.60
2017-12-17T03:45:14.754Z,10.97
2017-12-17T03:47:42.490Z,12.40
2017-12-17T03:50:10.222Z,11.90
2017-12-17T03:52:37.958Z,13.03
2017-12-17T03:55:05.686Z,12.20
2017-12-17T03:57:33.405Z,11.80
2017-12-17T04:00:01.145Z,11.70
2017-12-17T04:02:28.883Z,11.77
2017-12-17T04:04:56.606Z,12.33
2017-12-17T04:07:25.118Z,13.03
2017-12-17T04:09:53.018Z,11.37
2017-12-17T04:12:21.082Z,12.77
2017-12-17T04:14:48.813Z,12.60
2017-12-17T04:17:16.553Z,11.53
2017-12-17T04:19:45.042Z,11.00
2017-12-17T04:22:13.097Z,12.40
2017-12-17T04:24:41.597Z,12.80
2017-12-17T04:27:09.649Z,13.63
2017-12-17T04:29:38.124Z,12.77
2017-12-17T04:32:07.281Z,12.50
2017-12-17T04:34:34.999Z,14.53
2017-12-17T04:37:03.807Z,12.83
2017-12-17T04:39:31.545Z,13.20
2017-12-17T04:42:00.554Z,13.33
2017-12-17T04:44:28.286Z,14.00
2017-12-17T04:46:56.018Z,14.30
2017-12-17T04:49:23.738Z,14.33
2017-12-17T04:51:51.518Z,13.80
2017-12-17T04:54:19.255Z,14.10
2017-12-17T04:56:47.315Z,13.67
2017-12-17T04:59:15.805Z,13.50
2017-12-17T05:01:44.303Z,13.50
2017-12-17T05:04:12.027Z,14.53
2017-12-17T05:06:39.746Z,14.70
2017-12-17T05:09:07.478Z,14.47
2017-12-17T05:11:35.195Z,14.27
2017-12-17T05:14:02.918Z,13.63
2017-12-17T05:16:30.987Z,13.50
2017-12-17T05:18:58.753Z,13.00
2017-12-17T05:21:26.469Z,15.50
2017-12-17T05:23:54.208Z,14.20
2017-12-17T05:26:21.945Z,13.77
2017-12-17T05:28:49.683Z,14.20
2017-12-17T05:31:18.178Z,15.00
2017-12-17T05:33:45.898Z,13.80
2017-12-17T05:36:13.658Z,15.10
2017-12-17T05:38:41.376Z,14.40
2017-12-17T05:41:09.098Z,14.67
2017-12-17T05:43:37.918Z,13.70
2017-12-17T05:46:05.645Z,11.83
2017-12-17T05:48:33.449Z,13.87
2017-12-17T05:51:01.221Z,14.87
2017-12-17T05:53:28.949Z,12.10
2017-12-17T05:55:57.457Z,14.33
2017-12-17T05:58:26.442Z,13.20
2017-12-17T06:00:54.187Z,13.13
2017-12-17T06:03:21.904Z,15.10
2017-12-17T06:05:49.950Z,13.63
2017-12-17T06:08:17.674Z,14.20
2017-12-17T06:10:46.193Z,14.77
2017-12-17T06:13:13.915Z,15.80
2017-12-17T06:15:42.416Z,13.60
2017-12-17T06:18:10.145Z,14.00
2017-12-17T06:20:37.868Z,11.60
2017-12-17T06:23:05.588Z,13.70
2017-12-17T06:25:34.081Z,13.23
2017-12-17T06:28:01.800Z,12.20
2017-12-17T06:30:29.531Z,12.07
2017-12-17T06:32:57.250Z,13.40
2017-12-17T06:35:25.734Z,13.20
2017-12-17T06:37:54.566Z,12.93
2017-12-17T06:40:22.620Z,13.70
2017-12-17T06:42:50.347Z,12.90
2017-12-17T06:45:18.864Z,12.13
2017-12-17T06:47:46.601Z,11.67
2017-12-17T06:50:14.513Z,12.73
2017-12-17T06:52:42.259Z,12.83
2017-12-17T06:55:09.992Z,20.70
2017-12-17T06:57:39.083Z,21.43
2017-12-17T07:00:07.571Z,14.43
2017-12-17T07:02:35.664Z,12.27
2017-12-17T07:05:04.049Z,11.13
2017-12-17T07:07:31.777Z,12.73
2017-12-17T07:10:00.260Z,12.30
2017-12-17T07:12:28.749Z,12.17
2017-12-17T07:14:56.477Z,11.63
2017-12-17T07:17:24.201Z,12.83
2017-12-17T07:19:51.931Z,11.73
2017-12-17T07:22:20.421Z,11.27
2017-12-17T07:24:48.217Z,11.33
2017-12-17T07:27:15.925Z,12.03
2017-12-17T07:29:44.419Z,10.67
2017-12-17T07:32:13.228Z,11.10
2017-12-17T07:34:41.486Z,11.33
2017-12-17T07:37:09.206Z,10.00
2017-12-17T07:39:37.694Z,9.97
2017-12-17T07:42:05.410Z,11.70
2017-12-17T07:44:33.170Z,11.70
2017-12-17T07:47:00.906Z,12.00
2017-12-17T07:49:29.381Z,9.90
2017-12-17T07:51:59.375Z,10.60
2017-12-17T07:54:29.448Z,10.00
2017-12-17T07:57:03.280Z,10.23
2017-12-17T07:59:33.440Z,10.40
2017-12-17T08:02:01.927Z,10.63
2017-12-17T08:04:30.452Z,11.30
2017-12-17T08:06:59.672Z,11.00
2017-12-17T08:09:28.859Z,10.90
2017-12-17T08:11:56.598Z,10.27
2017-12-17T08:14:24.687Z,10.70
2017-12-17T08:16:52.401Z,9.60
2017-12-17T08:19:21.378Z,10.20
2017-12-17T08:21:49.195Z,10.70
2017-12-17T08:24:16.975Z,11.13
2017-12-17T08:26:44.893Z,11.30
2017-12-17T08:29:13.403Z,10.57
2017-12-17T08:31:41.769Z,9.50
2017-12-17T08:34:09.629Z,8.70
2017-12-17T08:36:37.552Z,9.37
2017-12-17T08:39:06.182Z,9.57
2017-12-17T08:41:35.012Z,10.02
2017-12-17T08:44:02.744Z,10.10
2017-12-17T08:46:31.835Z,8.90
2017-12-17T08:48:59.866Z,8.32
2017-12-17T08:51:28.458Z,9.33
2017-12-17T08:53:56.461Z,9.90
2017-12-17T08:56:24.177Z,7.97
2017-12-17T08:58:53.326Z,8.60
2017-12-17T09:01:21.033Z,8.80
2017-12-17T09:03:49.875Z,7.67
2017-12-17T09:06:18.439Z,9.00
2017-12-17T09:08:48.379Z,8.57
2017-12-17T09:11:16.309Z,8.60
2017-12-17T09:13:45.350Z,8.32
2017-12-17T09:16:13.049Z,7.90
2017-12-17T09:18:41.867Z,8.57
2017-12-17T09:21:10.979Z,9.00
2017-12-17T09:23:39.358Z,8.43
2017-12-17T09:26:07.404Z,8.30
2017-12-17T09:28:39.171Z,8.50
2017-12-17T09:31:07.242Z,7.23
2017-12-17T09:33:36.328Z,8.05
2017-12-17T09:36:04.487Z,6.93
2017-12-17T09:38:32.490Z,6.72
2017-12-17T09:41:00.742Z,7.00
2017-12-17T09:43:29.872Z,6.47
2017-12-17T09:45:57.802Z,6.90
2017-12-17T09:48:27.322Z,6.80
2017-12-17T09:50:55.588Z,6.87
2017-12-17T09:53:23.575Z,7.10
2017-12-17T09:55:51.614Z,6.97
2017-12-17T09:58:20.645Z,7.50
2017-12-17T10:00:48.978Z,6.75
2017-12-17T10:03:16.885Z,6.60
2017-12-17T10:05:45.229Z,6.57
2017-12-17T10:08:14.761Z,6.83
2017-12-17T10:10:42.475Z,7.37
2017-12-17T10:13:10.768Z,7.07
2017-12-17T10:15:39.094Z,7.07
2017-12-17T10:18:06.811Z,7.10
2017-12-17T10:20:34.546Z,7.90
2017-12-17T10:23:03.553Z,7.60
2017-12-17T10:25:31.687Z,7.30
2017-12-17T10:27:59.546Z,7.10
2017-12-17T10:30:27.601Z,6.90
2017-12-17T10:32:55.369Z,6.87
2017-12-17T10:35:23.361Z,7.17
2017-12-17T10:37:51.121Z,7.00
2017-12-17T10:40:19.151Z,6.77
2017-12-17T10:42:46.875Z,7.30
2017-12-17T10:45:14.862Z,6.62
2017-12-17T10:47:42.632Z,7.30
2017-12-17T10:50:10.634Z,8.30
2017-12-17T10:52:38.622Z,7.78
2017-12-17T10:55:07.018Z,7.18
2017-12-17T10:57:35.128Z,7.93
2017-12-17T11:00:03.989Z,7.80
2017-12-17T11:02:33.094Z,9.00
2017-12-17T11:05:01.090Z,8.00
2017-12-17T11:07:30.187Z,7.15
2017-12-17T11:10:00.076Z,8.97
2017-12-17T11:12:28.270Z,7.60
2017-12-17T11:14:56.001Z,7.73
2017-12-17T11:17:25.139Z,8.20
2017-12-17T11:19:53.137Z,8.18
2017-12-17T11:22:21.132Z,7.40
2017-12-17T11:24:49.527Z,7.20
2017-12-17T11:27:17.266Z,7.97
2017-12-17T11:29:45.379Z,7.33
2017-12-17T11:32:13.326Z,8.47
2017-12-17T11:34:41.708Z,8.10
2017-12-17T11:37:09.482Z,6.90
2017-12-17T11:39:37.660Z,8.38
2017-12-17T11:42:07.092Z,9.95
2017-12-17T11:44:35.921Z,8.83
2017-12-17T11:47:03.913Z,7.50
2017-12-17T11:49:33.003Z,8.07
2017-12-17T11:52:00.873Z,6.67
2017-12-17T11:54:28.917Z,7.47
2017-12-17T11:56:56.925Z,7.32
2017-12-17T11:59:25.284Z,6.23
2017-12-17T12:01:53.953Z,6.43
2017-12-17T12:04:21.955Z,5.47
2017-12-17T12:06:49.662Z,6.17
2017-12-17T12:09:18.138Z,5.23
2017-12-17T12:11:46.608Z,5.10
2017-12-17T12:14:14.498Z,4.90
2017-12-17T12:16:42.982Z,5.17
2017-12-17T12:19:11.501Z,4.53
2017-12-17T12:21:39.225Z,4.33
2017-12-17T12:24:07.866Z,4.73
2017-12-17T12:26:36.253Z,4.62
2017-12-17T12:29:03.975Z,4.77
2017-12-17T12:31:31.915Z,4.93
2017-12-17T12:34:01.034Z,4.83
2017-12-17T12:36:30.111Z,5.03
2017-12-17T12:38:58.091Z,5.43
2017-12-17T12:41:25.898Z,5.40
2017-12-17T12:43:53.884Z,4.80
2017-12-17T12:46:21.866Z,5.22
2017-12-17T12:48:49.900Z,5.07
2017-12-17T12:51:17.878Z,4.95
2017-12-17T12:53:46.129Z,5.83
2017-12-17T12:56:13.891Z,4.80
2017-12-17T12:58:42.081Z,4.67
2017-12-17T13:01:09.998Z,4.53
2017-12-17T13:03:38.645Z,5.00
2017-12-17T13:06:07.091Z,4.45
2017-12-17T13:08:34.789Z,4.87
2017-12-17T13:11:02.803Z,4.50
2017-12-17T13:13:30.506Z,5.00
2017-12-17T13:15:58.593Z,4.20
2017-12-17T13:18:26.660Z,5.13
2017-12-17T13:20:54.721Z,5.67
2017-12-17T13:23:22.439Z,6.03
2017-12-17T13:25:51.065Z,4.77
2017-12-17T13:28:20.639Z,5.33
2017-12-17T13:30:50.171Z,5.70
2017-12-17T13:33:19.569Z,5.43
2017-12-17T13:35:48.224Z,5.10
2017-12-17T13:38:16.201Z,5.50
2017-12-17T13:40:43.921Z,6.03
2017-12-17T13:43:12.337Z,6.10
2017-12-17T13:45:41.413Z,5.55
2017-12-17T13:48:09.137Z,6.50
2017-12-17T13:50:37.003Z,6.07
2017-12-17T13:53:05.697Z,5.70
2017-12-17T13:55:33.750Z,6.07
2017-12-17T13:58:02.298Z,5.87
2017-12-17T14:00:30.846Z,6.40
2017-12-17T14:03:00.929Z,5.72
2017-12-17T14:05:28.686Z,6.87
2017-12-17T14:07:56.682Z,6.30
2017-12-17T14:10:24.685Z,5.90
2017-12-17T14:12:52.869Z,5.73
2017-12-17T14:15:20.581Z,6.40
2017-12-17T14:17:48.713Z,6.70
2017-12-17T14:20:16.765Z,5.20
2017-12-17T14:22:44.604Z,5.90
2017-12-17T14:25:12.484Z,5.30
2017-12-17T14:27:40.925Z,6.10
2017-12-17T14:30:09.816Z,6.03
2017-12-17T14:32:37.830Z,6.43
2017-12-17T14:35:05.874Z,5.83
2017-12-17T14:37:34.182Z,5.23
2017-12-17T14:40:02.172Z,5.43
2017-12-17T14:42:29.897Z,5.80
2017-12-17T14:44:58.627Z,6.33
2017-12-17T14:47:26.533Z,5.20
2017-12-17T14:49:55.001Z,5.77
2017-12-17T15:15:14.880Z,5.35
2017-12-17T15:17:42.951Z,6.45
2017-12-17T15:20:10.935Z,6.15
2017-12-17T15:22:38.673Z,6.40
2017-12-17T15:25:06.678Z,5.37
2017-12-17T15:27:34.662Z,5.47
2017-12-17T15:30:02.378Z,6.10
2017-12-17T15:32:30.097Z,5.40
2017-12-17T15:34:58.607Z,6.27
2017-12-17T15:37:26.420Z,5.62
2017-12-17T15:39:54.306Z,6.17
2017-12-17T15:42:22.021Z,5.80
2017-12-17T15:44:50.317Z,5.97
2017-12-17T15:47:18.729Z,5.72
2017-12-17T15:49:46.637Z,6.40
2017-12-17T15:52:14.377Z,6.93
2017-12-17T15:54:42.154Z,6.60
2017-12-17T15:57:09.856Z,6.50
2017-12-17T15:59:37.578Z,6.70
2017-12-17T16:02:05.550Z,6.10
2017-12-17T16:04:33.249Z,6.00
2017-12-17T16:07:01.601Z,5.80
2017-12-17T16:09:29.450Z,5.60
2017-12-17T16:11:58.319Z,5.73
2017-12-17T16:14:26.803Z,6.53
2017-12-17T16:16:55.277Z,6.10
2017-12-17T16:19:23.618Z,5.53
2017-12-17T16:21:51.608Z,6.78
2017-12-17T16:24:19.853Z,6.93
2017-12-17T16:26:48.166Z,5.50
2017-12-17T16:29:15.888Z,6.87
2017-12-17T16:31:43.853Z,6.47
2017-12-17T16:34:12.487Z,6.93
2017-12-17T16:36:41.634Z,6.27
2017-12-17T16:39:10.006Z,6.33
2017-12-17T16:41:38.410Z,6.47
2017-12-17T16:44:07.051Z,6.83
2017-12-17T16:46:35.639Z,6.00
2017-12-17T16:49:03.768Z,7.20
2017-12-17T16:51:32.428Z,7.20
2017-12-17T16:54:01.508Z,7.40
2017-12-17T16:56:30.333Z,5.93
2017-12-17T16:58:58.923Z,6.40
2017-12-17T17:01:27.731Z,6.07
2017-12-17T17:03:56.383Z,6.78
2017-12-17T17:06:24.765Z,6.83
2017-12-17T17:08:54.633Z,6.30
2017-12-17T17:11:23.873Z,6.10
2017-12-17T17:13:53.350Z,6.70
2017-12-17T17:16:21.996Z,6.68
2017-12-17T17:18:50.477Z,7.07
2017-12-17T17:21:18.981Z,6.90
2017-12-17T17:23:47.364Z,5.97
2017-12-17T17:26:16.003Z,6.20
2017-12-17T17:28:44.808Z,6.40
2017-12-17T17:31:13.893Z,6.75
2017-12-17T17:33:42.263Z,7.07
2017-12-17T17:36:11.419Z,6.63
2017-12-17T17:38:40.378Z,6.25
2017-12-17T17:41:08.485Z,5.77
2017-12-17T17:43:36.826Z,6.57
2017-12-17T17:46:04.868Z,6.97
2017-12-17T17:48:33.359Z,6.18
2017-12-17T17:51:01.740Z,6.17
2017-12-17T17:53:30.970Z,6.20
2017-12-17T17:56:00.107Z,6.03
2017-12-17T17:58:28.701Z,5.53
2017-12-17T18:00:57.087Z,5.73
2017-12-17T18:03:25.469Z,6.50
2017-12-17T18:05:53.903Z,5.80
2017-12-17T18:08:22.231Z,6.00
2017-12-17T18:10:50.605Z,6.27
2017-12-17T18:13:20.058Z,5.50
2017-12-17T18:15:48.693Z,5.32
2017-12-17T18:18:17.223Z,5.60
2017-12-17T18:20:45.876Z,5.93
2017-12-17T18:23:14.488Z,5.43
2017-12-17T18:25:42.865Z,4.77
2017-12-17T18:28:11.334Z,5.37
2017-12-17T18:30:40.046Z,5.60
2017-12-17T18:33:08.525Z,6.47
2017-12-17T18:35:37.601Z,5.50
2017-12-17T18:38:06.266Z,6.43
2017-12-17T18:40:34.769Z,5.87
2017-12-17T18:43:03.418Z,6.32
2017-12-17T18:45:32.226Z,5.85
2017-12-17T18:48:00.602Z,6.20
2017-12-17T18:50:29.038Z,6.17
2017-12-17T18:52:57.418Z,6.00
2017-12-17T18:55:25.789Z,7.13
2017-12-17T18:57:54.933Z,7.93
2017-12-17T19:00:22.948Z,6.87
2017-12-17T19:02:51.631Z,7.07
2017-12-17T19:05:20.783Z,6.73
2017-12-17T19:07:49.155Z,7.30
2017-12-17T19:10:17.533Z,5.83
2017-12-17T19:12:46.181Z,5.80
2017-12-17T19:15:14.252Z,7.27
2017-12-17T19:17:43.537Z,6.20
2017-12-17T19:20:12.764Z,6.60
2017-12-17T19:22:41.179Z,6.23
2017-12-17T19:25:09.275Z,6.23
2017-12-17T19:27:38.424Z,7.43
2017-12-17T19:30:06.812Z,6.60
2017-12-17T19:32:35.458Z,7.00
2017-12-17T19:35:03.820Z,7.30
2017-12-17T19:37:32.639Z,7.40
2017-12-17T19:40:01.042Z,7.47
2017-12-17T19:42:29.445Z,5.60
2017-12-17T19:44:57.822Z,6.70
2017-12-17T19:47:26.201Z,7.50
2017-12-17T19:49:54.581Z,6.80
2017-12-17T19:52:23.235Z,6.65
2017-12-17T19:54:51.900Z,7.53
2017-12-17T19:57:20.299Z,6.47
2017-12-17T19:59:48.941Z,7.13
2017-12-17T20:02:17.321Z,5.70
2017-12-17T20:04:45.702Z,6.40
2017-12-17T20:07:14.849Z,6.67
2017-12-17T20:09:43.517Z,6.22
2017-12-17T20:12:12.164Z,7.78
2017-12-17T20:14:40.540Z,7.17
2017-12-17T20:17:09.788Z,7.50
2017-12-17T20:19:38.782Z,8.00
2017-12-17T20:22:07.237Z,6.50
2017-12-17T20:24:36.464Z,6.37
2017-12-17T20:27:04.742Z,5.47
2017-12-17T20:29:33.150Z,6.40
2017-12-17T20:32:01.366Z,6.37
2017-12-17T20:34:29.845Z,7.12
2017-12-17T20:36:59.351Z,6.40
2017-12-17T20:39:27.729Z,6.63
2017-12-17T20:41:56.318Z,6.47
2017-12-17T20:44:24.919Z,6.17
2017-12-17T20:46:53.323Z,7.53
2017-12-17T20:49:22.694Z,6.20
2017-12-17T20:51:51.277Z,7.23
2017-12-17T20:54:19.917Z,8.73
2017-12-17T20:56:48.307Z,8.20
2017-12-17T20:59:17.736Z,9.48
2017-12-17T21:01:46.126Z,7.33
2017-12-17T21:04:14.801Z,7.60
2017-12-17T21:06:43.364Z,7.40
2017-12-17T21:09:12.023Z,7.53
2017-12-17T21:11:41.841Z,7.45
2017-12-17T21:14:10.675Z,7.03
2017-12-17T21:16:39.155Z,7.60
2017-12-17T21:19:07.649Z,8.67
2017-12-17T21:21:36.803Z,8.90
2017-12-17T21:24:05.179Z,6.77
2017-12-17T21:26:34.624Z,7.45
2017-12-17T21:29:03.791Z,7.30
2017-12-17T21:31:33.142Z,8.03
2017-12-17T21:34:02.301Z,7.63
2017-12-17T21:36:30.782Z,7.50
2017-12-17T21:38:59.530Z,7.10
2017-12-17T21:41:28.064Z,7.50
2017-12-17T21:43:57.234Z,7.33
2017-12-17T21:46:26.202Z,7.62
2017-12-17T21:48:54.590Z,7.40
2017-12-17T21:51:22.970Z,7.27
2017-12-17T21:53:51.334Z,6.63
2017-12-17T21:56:19.729Z,7.40
2017-12-17T21:58:48.109Z,7.57
2017-12-17T22:01:16.524Z,6.87
2017-12-17T22:03:45.678Z,6.90
2017-12-17T22:06:14.174Z,7.20
2017-12-17T22:08:42.644Z,6.90
2017-12-17T22:11:11.032Z,5.87
2017-12-17T22:13:39.411Z,6.97
2017-12-17T22:16:07.799Z,6.10
2017-12-17T22:18:36.183Z,6.30
2017-12-17T22:21:04.682Z,5.90
2017-12-17T22:23:33.835Z,7.50
2017-12-17T22:26:02.221Z,6.50
2017-12-17T22:28:30.598Z,6.50
2017-12-17T22:30:58.978Z,6.87
2017-12-17T22:33:27.044Z,6.40
2017-12-17T22:35:55.614Z,7.37
2017-12-17T22:38:23.990Z,6.90
2017-12-17T22:40:52.374Z,6.90
2017-12-17T22:43:20.754Z,7.30
2017-12-17T22:45:48.806Z,6.90
2017-12-17T22:48:16.860Z,6.67
2017-12-17T22:50:45.255Z,6.50
2017-12-17T22:53:14.003Z,5.90
2017-12-17T22:55:43.171Z,6.40
2017-12-17T22:58:11.553Z,5.87
2017-12-17T23:00:39.591Z,6.50
2017-12-17T23:03:07.640Z,6.27
2017-12-17T23:05:36.021Z,6.30
2017-12-17T23:08:03.744Z,6.13
2017-12-17T23:10:32.578Z,6.20
2017-12-17T23:13:00.951Z,6.80
2017-12-17T23:15:29.323Z,6.20
2017-12-17T23:17:57.717Z,6.97
2017-12-17T23:20:25.762Z,5.90
2017-12-17T23:22:54.133Z,5.73
2017-12-17T23:25:21.873Z,6.10
2017-12-17T23:27:49.923Z,5.50
2017-12-17T23:30:18.309Z,5.73
2017-12-17T23:32:46.696Z,5.40
2017-12-17T23:35:15.069Z,6.33
2017-12-17T23:37:43.644Z,5.67
2017-12-17T23:40:12.036Z,6.33
2017-12-17T23:42:40.411Z,5.47
2017-12-17T23:45:08.822Z,5.60
2017-12-17T23:47:37.198Z,5.90
2017-12-17T23:50:05.269Z,5.70
2017-12-17T23:52:33.634Z,5.53
2017-12-17T23:55:02.794Z,5.97
2017-12-17T23:57:32.682Z,4.93
